sensor_id;sensor_type;location;lat;lon;timestamp;P1;durP1;ratioP1;P2;durP2;ratioP2
24008;SDS011;12217;50.792;4.372;2023-06-24T00:00:55;12.40;;;8.38;;
24008;SDS011;12217;50.792;4.372;2023-06-24T00:03:21;12.63;;;8.68;;
24008;SDS011;12217;50.792;4.372;2023-06-24T00:05:46;10.10;;;7.70;;
24008;SDS011;12217;50.792;4.372;2023-06-24T00:08:16;9.85;;;8.73;;
24008;SDS011;12217;50.792;4.372;2023-06-24T00:10:48;11.10;;;7.95;;
24008;SDS011;12217;50.792;4.372;2023-06-24T00:13:16;8.30;;;7.43;;
24008;SDS011;12217;50.792;4.372;2023-06-24T00:15:42;8.75;;;7.05;;
24008;SDS011;12217;50.792;4.372;2023-06-24T00:18:11;11.60;;;7.40;;
24008;SDS011;12217;50.792;4.372;2023-06-24T00:20:38;8.40;;;7.22;;
24008;SDS011;12217;50.792;4.372;2023-06-24T00:23:04;9.45;;;7.25;;
24008;SDS011;12217;50.792;4.372;2023-06-24T00:25:30;9.38;;;6.85;;
24008;SDS011;12217;50.792;4.372;2023-06-24T00:27:56;8.68;;;6.80;;
24008;SDS011;12217;50.792;4.372;2023-06-24T00:30:22;7.95;;;7.10;;
24008;SDS011;12217;50.792;4.372;2023-06-24T00:32:48;8.30;;;6.53;;
24008;SDS011;12217;50.792;4.372;2023-06-24T00:35:14;9.80;;;6.65;;
24008;SDS011;12217;50.792;4.372;2023-06-24T00:37:40;9.13;;;6.57;;
24008;SDS011;12217;50.792;4.372;2023-06-24T00:40:08;9.40;;;6.30;;
24008;SDS011;12217;50.792;4.372;2023-06-24T00:42:35;8.60;;;6.90;;
24008;SDS011;12217;50.792;4.372;2023-06-24T00:45:02;8.77;;;6.25;;
24008;SDS011;12217;50.792;4.372;2023-06-24T00:47:30;7.28;;;6.07;;
24008;SDS011;12217;50.792;4.372;2023-06-24T00:49:56;7.13;;;6.30;;
24008;SDS011;12217;50.792;4.372;2023-06-24T00:52:22;7.47;;;5.47;;
24008;SDS011;12217;50.792;4.372;2023-06-24T00:54:48;9.50;;;6.63;;
24008;SDS011;12217;50.792;4.372;2023-06-24T00:57:14;6.55;;;5.72;;
24008;SDS011;12217;50.792;4.372;2023-06-24T00:59:42;7.63;;;6.05;;
24008;SDS011;12217;50.792;4.372;2023-06-24T01:02:10;8.50;;;5.80;;
24008;SDS011;12217;50.792;4.372;2023-06-24T01:04:36;7.10;;;5.70;;
24008;SDS011;12217;50.792;4.372;2023-06-24T01:07:03;8.63;;;6.45;;
24008;SDS011;12217;50.792;4.372;2023-06-24T01:09:30;9.30;;;6.05;;
24008;SDS011;12217;50.792;4.372;2023-06-24T01:11:56;7.15;;;6.25;;
24008;SDS011;12217;50.792;4.372;2023-06-24T01:14:21;7.22;;;5.88;;
24008;SDS011;12217;50.792;4.372;2023-06-24T01:16:52;6.90;;;6.03;;
24008;SDS011;12217;50.792;4.372;2023-06-24T01:19:33;6.30;;;5.70;;
24008;SDS011;12217;50.792;4.372;2023-06-24T01:36:57;6.53;;;5.70;;
24008;SDS011;12217;50.792;4.372;2023-06-24T01:39:50;7.80;;;6.50;;
24008;SDS011;12217;50.792;4.372;2023-06-24T01:42:21;7.70;;;6.25;;
24008;SDS011;12217;50.792;4.372;2023-06-24T01:44:48;8.50;;;5.72;;
24008;SDS011;12217;50.792;4.372;2023-06-24T01:47:18;7.03;;;6.32;;
24008;SDS011;12217;50.792;4.372;2023-06-24T01:49:48;7.80;;;6.50;;
24008;SDS011;12217;50.792;4.372;2023-06-24T01:52:20;7.60;;;5.78;;
24008;SDS011;12217;50.792;4.372;2023-06-24T01:54:48;6.75;;;5.55;;
24008;SDS011;12217;50.792;4.372;2023-06-24T01:57:14;7.03;;;5.93;;
24008;SDS011;12217;50.792;4.372;2023-06-24T01:59:42;7.40;;;5.88;;
24008;SDS011;12217;50.792;4.372;2023-06-24T02:02:11;8.00;;;5.80;;
24008;SDS011;12217;50.792;4.372;2023-06-24T02:04:38;9.27;;;5.85;;
24008;SDS011;12217;50.792;4.372;2023-06-24T02:07:04;6.57;;;5.95;;
24008;SDS011;12217;50.792;4.372;2023-06-24T02:09:32;5.88;;;5.38;;
24008;SDS011;12217;50.792;4.372;2023-06-24T02:12:00;6.72;;;5.78;;
24008;SDS011;12217;50.792;4.372;2023-06-24T02:14:28;8.27;;;6.30;;
24008;SDS011;12217;50.792;4.372;2023-06-24T02:16:55;6.68;;;5.93;;
24008;SDS011;12217;50.792;4.372;2023-06-24T02:19:24;7.82;;;5.88;;
24008;SDS011;12217;50.792;4.372;2023-06-24T02:21:52;7.05;;;5.93;;
24008;SDS011;12217;50.792;4.372;2023-06-24T02:24:19;6.72;;;5.28;;
24008;SDS011;12217;50.792;4.372;2023-06-24T02:26:45;7.22;;;5.75;;
24008;SDS011;12217;50.792;4.372;2023-06-24T02:29:12;6.43;;;5.70;;
24008;SDS011;12217;50.792;4.372;2023-06-24T02:31:38;6.80;;;6.10;;
24008;SDS011;12217;50.792;4.372;2023-06-24T02:34:04;7.05;;;5.45;;
24008;SDS011;12217;50.792;4.372;2023-06-24T02:36:30;6.75;;;6.07;;
24008;SDS011;12217;50.792;4.372;2023-06-24T02:38:56;6.75;;;5.38;;
24008;SDS011;12217;50.792;4.372;2023-06-24T02:41:21;6.60;;;5.75;;
24008;SDS011;12217;50.792;4.372;2023-06-24T02:43:47;6.38;;;5.72;;
24008;SDS011;12217;50.792;4.372;2023-06-24T02:46:13;6.25;;;5.65;;
24008;SDS011;12217;50.792;4.372;2023-06-24T02:48:40;6.45;;;5.50;;
24008;SDS011;12217;50.792;4.372;2023-06-24T02:51:07;6.20;;;5.55;;
24008;SDS011;12217;50.792;4.372;2023-06-24T02:53:35;6.65;;;5.45;;
24008;SDS011;12217;50.792;4.372;2023-06-24T02:56:05;6.70;;;5.72;;
24008;SDS011;12217;50.792;4.372;2023-06-24T02:58:33;7.82;;;6.20;;
24008;SDS011;12217;50.792;4.372;2023-06-24T03:01:03;6.00;;;5.25;;
24008;SDS011;12217;50.792;4.372;2023-06-24T03:03:31;6.95;;;5.97;;
24008;SDS011;12217;50.792;4.372;2023-06-24T03:05:58;11.27;;;5.80;;
24008;SDS011;12217;50.792;4.372;2023-06-24T03:08:25;7.45;;;5.68;;
24008;SDS011;12217;50.792;4.372;2023-06-24T03:10:55;8.85;;;5.75;;
24008;SDS011;12217;50.792;4.372;2023-06-24T03:13:22;7.65;;;5.75;;
24008;SDS011;12217;50.792;4.372;2023-06-24T03:15:48;11.02;;;5.90;;
24008;SDS011;12217;50.792;4.372;2023-06-24T03:18:13;7.40;;;5.93;;
24008;SDS011;12217;50.792;4.372;2023-06-24T03:20:40;7.25;;;5.70;;
24008;SDS011;12217;50.792;4.372;2023-06-24T03:23:06;6.70;;;5.60;;
24008;SDS011;12217;50.792;4.372;2023-06-24T03:25:32;6.90;;;6.20;;
24008;SDS011;12217;50.792;4.372;2023-06-24T03:27:59;8.50;;;5.78;;
24008;SDS011;12217;50.792;4.372;2023-06-24T03:30:32;7.47;;;5.75;;
24008;SDS011;12217;50.792;4.372;2023-06-24T03:32:58;8.40;;;6.00;;
24008;SDS011;12217;50.792;4.372;2023-06-24T03:35:24;7.00;;;6.40;;
24008;SDS011;12217;50.792;4.372;2023-06-24T03:37:49;9.32;;;6.35;;
24008;SDS011;12217;50.792;4.372;2023-06-24T03:40:15;8.70;;;5.95;;
24008;SDS011;12217;50.792;4.372;2023-06-24T03:42:41;10.82;;;6.00;;
24008;SDS011;12217;50.792;4.372;2023-06-24T03:45:06;6.50;;;5.70;;
24008;SDS011;12217;50.792;4.372;2023-06-24T03:47:32;7.07;;;6.32;;
24008;SDS011;12217;50.792;4.372;2023-06-24T03:49:58;6.93;;;5.80;;
24008;SDS011;12217;50.792;4.372;2023-06-24T03:52:24;7.50;;;5.78;;
24008;SDS011;12217;50.792;4.372;2023-06-24T03:54:50;7.80;;;5.40;;
24008;SDS011;12217;50.792;4.372;2023-06-24T03:57:16;6.35;;;5.72;;
24008;SDS011;12217;50.792;4.372;2023-06-24T03:59:42;7.00;;;5.78;;
24008;SDS011;12217;50.792;4.372;2023-06-24T04:02:07;6.97;;;5.70;;
24008;SDS011;12217;50.792;4.372;2023-06-24T04:04:33;8.15;;;6.22;;
24008;SDS011;12217;50.792;4.372;2023-06-24T04:07:00;9.13;;;5.97;;
24008;SDS011;12217;50.792;4.372;2023-06-24T04:09:25;9.77;;;5.60;;
24008;SDS011;12217;50.792;4.372;2023-06-24T04:11:51;7.15;;;5.68;;
24008;SDS011;12217;50.792;4.372;2023-06-24T04:14:17;6.18;;;5.47;;
24008;SDS011;12217;50.792;4.372;2023-06-24T04:16:42;7.28;;;5.40;;
24008;SDS011;12217;50.792;4.372;2023-06-24T04:19:08;8.75;;;6.28;;
24008;SDS011;12217;50.792;4.372;2023-06-24T04:21:34;7.50;;;5.40;;
24008;SDS011;12217;50.792;4.372;2023-06-24T04:23:59;8.15;;;5.32;;
24008;SDS011;12217;50.792;4.372;2023-06-24T04:26:25;6.40;;;5.45;;
24008;SDS011;12217;50.792;4.372;2023-06-24T04:28:50;7.63;;;6.00;;
24008;SDS011;12217;50.792;4.372;2023-06-24T04:31:16;8.15;;;5.10;;
24008;SDS011;12217;50.792;4.372;2023-06-24T04:33:42;7.05;;;5.85;;
24008;SDS011;12217;50.792;4.372;2023-06-24T04:36:07;5.80;;;5.28;;
24008;SDS011;12217;50.792;4.372;2023-06-24T04:38:33;6.35;;;5.22;;
24008;SDS011;12217;50.792;4.372;2023-06-24T04:40:58;5.22;;;4.68;;
24008;SDS011;12217;50.792;4.372;2023-06-24T04:43:25;5.90;;;5.30;;
24008;SDS011;12217;50.792;4.372;2023-06-24T04:45:53;6.85;;;5.03;;
24008;SDS011;12217;50.792;4.372;2023-06-24T04:48:20;6.22;;;5.25;;
24008;SDS011;12217;50.792;4.372;2023-06-24T04:50:47;6.82;;;5.55;;
24008;SDS011;12217;50.792;4.372;2023-06-24T04:53:13;5.95;;;5.30;;
24008;SDS011;12217;50.792;4.372;2023-06-24T04:55:39;6.55;;;5.07;;
24008;SDS011;12217;50.792;4.372;2023-06-24T04:58:04;7.43;;;5.50;;
24008;SDS011;12217;50.792;4.372;2023-06-24T05:00:30;6.63;;;5.38;;
24008;SDS011;12217;50.792;4.372;2023-06-24T05:02:56;5.60;;;5.10;;
24008;SDS011;12217;50.792;4.372;2023-06-24T05:05:21;7.13;;;5.20;;
24008;SDS011;12217;50.792;4.372;2023-06-24T05:07:47;6.38;;;5.00;;
24008;SDS011;12217;50.792;4.372;2023-06-24T05:10:13;8.00;;;5.22;;
24008;SDS011;12217;50.792;4.372;2023-06-24T05:12:38;6.75;;;5.07;;
24008;SDS011;12217;50.792;4.372;2023-06-24T05:15:04;5.75;;;4.72;;
24008;SDS011;12217;50.792;4.372;2023-06-24T05:17:31;6.00;;;4.93;;
24008;SDS011;12217;50.792;4.372;2023-06-24T05:19:56;6.63;;;4.65;;
24008;SDS011;12217;50.792;4.372;2023-06-24T05:22:22;6.75;;;4.70;;
24008;SDS011;12217;50.792;4.372;2023-06-24T05:24:49;7.05;;;4.53;;
24008;SDS011;12217;50.792;4.372;2023-06-24T05:27:14;8.57;;;4.78;;
24008;SDS011;12217;50.792;4.372;2023-06-24T05:29:42;4.78;;;4.28;;
24008;SDS011;12217;50.792;4.372;2023-06-24T05:32:08;6.25;;;4.47;;
24008;SDS011;12217;50.792;4.372;2023-06-24T05:34:33;5.53;;;4.57;;
24008;SDS011;12217;50.792;4.372;2023-06-24T05:37:00;7.50;;;4.50;;
24008;SDS011;12217;50.792;4.372;2023-06-24T05:39:25;5.78;;;4.47;;
24008;SDS011;12217;50.792;4.372;2023-06-24T05:41:51;5.07;;;4.13;;
24008;SDS011;12217;50.792;4.372;2023-06-24T05:44:16;6.13;;;4.10;;
24008;SDS011;12217;50.792;4.372;2023-06-24T05:46:45;7.75;;;4.35;;
24008;SDS011;12217;50.792;4.372;2023-06-24T05:49:11;7.13;;;4.30;;
24008;SDS011;12217;50.792;4.372;2023-06-24T05:51:37;6.00;;;4.10;;
24008;SDS011;12217;50.792;4.372;2023-06-24T05:54:02;6.38;;;3.97;;
24008;SDS011;12217;50.792;4.372;2023-06-24T05:56:28;5.53;;;4.07;;
24008;SDS011;12217;50.792;4.372;2023-06-24T05:58:54;4.53;;;3.78;;
24008;SDS011;12217;50.792;4.372;2023-06-24T06:01:20;6.22;;;3.83;;
24008;SDS011;12217;50.792;4.372;2023-06-24T06:03:45;5.88;;;4.28;;
24008;SDS011;12217;50.792;4.372;2023-06-24T06:06:11;6.88;;;4.15;;
24008;SDS011;12217;50.792;4.372;2023-06-24T06:08:36;5.13;;;4.32;;
24008;SDS011;12217;50.792;4.372;2023-06-24T06:11:02;4.57;;;3.38;;
24008;SDS011;12217;50.792;4.372;2023-06-24T06:13:28;6.00;;;4.57;;
24008;SDS011;12217;50.792;4.372;2023-06-24T06:15:54;4.00;;;3.60;;
24008;SDS011;12217;50.792;4.372;2023-06-24T06:18:20;4.65;;;3.92;;
24008;SDS011;12217;50.792;4.372;2023-06-24T06:20:46;4.47;;;3.75;;
24008;SDS011;12217;50.792;4.372;2023-06-24T06:23:11;7.30;;;4.25;;
24008;SDS011;12217;50.792;4.372;2023-06-24T06:25:37;5.32;;;4.20;;
24008;SDS011;12217;50.792;4.372;2023-06-24T06:28:03;4.88;;;4.30;;
24008;SDS011;12217;50.792;4.372;2023-06-24T06:30:29;5.13;;;3.90;;
24008;SDS011;12217;50.792;4.372;2023-06-24T06:32:55;4.20;;;3.80;;
24008;SDS011;12217;50.792;4.372;2023-06-24T06:35:20;5.93;;;4.35;;
24008;SDS011;12217;50.792;4.372;2023-06-24T06:37:46;5.50;;;4.00;;
24008;SDS011;12217;50.792;4.372;2023-06-24T06:40:17;4.65;;;4.20;;
24008;SDS011;12217;50.792;4.372;2023-06-24T06:42:43;5.25;;;4.38;;
24008;SDS011;12217;50.792;4.372;2023-06-24T06:45:09;6.03;;;4.80;;
24008;SDS011;12217;50.792;4.372;2023-06-24T06:47:36;4.20;;;3.80;;
24008;SDS011;12217;50.792;4.372;2023-06-24T06:50:01;4.25;;;3.80;;
24008;SDS011;12217;50.792;4.372;2023-06-24T06:52:28;4.03;;;3.67;;
24008;SDS011;12217;50.792;4.372;2023-06-24T06:54:53;5.03;;;3.70;;
24008;SDS011;12217;50.792;4.372;2023-06-24T06:57:19;4.63;;;4.07;;
24008;SDS011;12217;50.792;4.372;2023-06-24T06:59:45;5.18;;;3.88;;
24008;SDS011;12217;50.792;4.372;2023-06-24T07:02:11;5.93;;;4.20;;
24008;SDS011;12217;50.792;4.372;2023-06-24T07:04:36;6.43;;;4.40;;
24008;SDS011;12217;50.792;4.372;2023-06-24T07:07:02;5.90;;;4.30;;
24008;SDS011;12217;50.792;4.372;2023-06-24T07:09:28;6.40;;;4.30;;
24008;SDS011;12217;50.792;4.372;2023-06-24T07:11:53;5.78;;;4.47;;
24008;SDS011;12217;50.792;4.372;2023-06-24T07:14:19;6.78;;;3.83;;
24008;SDS011;12217;50.792;4.372;2023-06-24T07:16:45;4.80;;;4.05;;
24008;SDS011;12217;50.792;4.372;2023-06-24T07:19:10;4.70;;;3.80;;
24008;SDS011;12217;50.792;4.372;2023-06-24T07:21:37;4.60;;;3.65;;
24008;SDS011;12217;50.792;4.372;2023-06-24T07:24:03;6.22;;;3.65;;
24008;SDS011;12217;50.792;4.372;2023-06-24T07:26:29;5.10;;;3.63;;
24008;SDS011;12217;50.792;4.372;2023-06-24T07:28:58;5.18;;;3.72;;
24008;SDS011;12217;50.792;4.372;2023-06-24T07:31:24;5.00;;;3.80;;
24008;SDS011;12217;50.792;4.372;2023-06-24T07:33:50;5.15;;;3.60;;
24008;SDS011;12217;50.792;4.372;2023-06-24T07:36:15;6.25;;;3.80;;
24008;SDS011;12217;50.792;4.372;2023-06-24T07:38:41;5.93;;;3.83;;
24008;SDS011;12217;50.792;4.372;2023-06-24T07:41:07;3.97;;;3.40;;
24008;SDS011;12217;50.792;4.372;2023-06-24T07:43:33;5.35;;;3.65;;
24008;SDS011;12217;50.792;4.372;2023-06-24T07:45:58;3.65;;;3.08;;
24008;SDS011;12217;50.792;4.372;2023-06-24T07:48:24;4.15;;;3.35;;
24008;SDS011;12217;50.792;4.372;2023-06-24T07:50:50;6.28;;;3.35;;
24008;SDS011;12217;50.792;4.372;2023-06-24T07:53:15;3.90;;;3.50;;
24008;SDS011;12217;50.792;4.372;2023-06-24T07:55:41;6.55;;;3.83;;
24008;SDS011;12217;50.792;4.372;2023-06-24T07:58:07;6.80;;;3.65;;
24008;SDS011;12217;50.792;4.372;2023-06-24T08:00:32;4.68;;;3.53;;
24008;SDS011;12217;50.792;4.372;2023-06-24T08:02:58;3.97;;;3.30;;
24008;SDS011;12217;50.792;4.372;2023-06-24T08:05:24;3.88;;;3.45;;
24008;SDS011;12217;50.792;4.372;2023-06-24T08:07:50;3.90;;;3.13;;
24008;SDS011;12217;50.792;4.372;2023-06-24T08:10:17;4.13;;;3.35;;
24008;SDS011;12217;50.792;4.372;2023-06-24T08:12:42;4.45;;;3.58;;
24008;SDS011;12217;50.792;4.372;2023-06-24T08:15:08;6.03;;;3.38;;
24008;SDS011;12217;50.792;4.372;2023-06-24T08:17:34;3.70;;;3.03;;
24008;SDS011;12217;50.792;4.372;2023-06-24T08:20:01;4.80;;;3.35;;
24008;SDS011;12217;50.792;4.372;2023-06-24T08:22:27;3.47;;;3.17;;
24008;SDS011;12217;50.792;4.372;2023-06-24T08:24:53;7.70;;;3.20;;
24008;SDS011;12217;50.792;4.372;2023-06-24T08:27:19;5.95;;;3.20;;
24008;SDS011;12217;50.792;4.372;2023-06-24T08:29:44;3.90;;;2.88;;
24008;SDS011;12217;50.792;4.372;2023-06-24T08:32:10;3.50;;;2.92;;
24008;SDS011;12217;50.792;4.372;2023-06-24T08:34:35;3.83;;;2.78;;
24008;SDS011;12217;50.792;4.372;2023-06-24T08:37:01;3.90;;;2.83;;
24008;SDS011;12217;50.792;4.372;2023-06-24T08:39:27;6.25;;;3.08;;
24008;SDS011;12217;50.792;4.372;2023-06-24T08:41:52;3.25;;;2.60;;
24008;SDS011;12217;50.792;4.372;2023-06-24T08:44:18;3.60;;;3.03;;
24008;SDS011;12217;50.792;4.372;2023-06-24T08:46:44;4.18;;;3.15;;
24008;SDS011;12217;50.792;4.372;2023-06-24T08:51:54;7.05;;;3.00;;
24008;SDS011;12217;50.792;4.372;2023-06-24T08:54:23;3.72;;;3.08;;
24008;SDS011;12217;50.792;4.372;2023-06-24T08:56:50;3.50;;;2.47;;
24008;SDS011;12217;50.792;4.372;2023-06-24T08:59:16;4.72;;;3.20;;
24008;SDS011;12217;50.792;4.372;2023-06-24T09:01:44;7.20;;;2.95;;
24008;SDS011;12217;50.792;4.372;2023-06-24T09:04:14;2.95;;;2.47;;
24008;SDS011;12217;50.792;4.372;2023-06-24T09:06:40;3.00;;;2.70;;
24008;SDS011;12217;50.792;4.372;2023-06-24T09:09:16;3.45;;;2.72;;
24008;SDS011;12217;50.792;4.372;2023-06-24T09:11:55;5.63;;;2.50;;
24008;SDS011;12217;50.792;4.372;2023-06-24T09:14:26;3.47;;;2.85;;
24008;SDS011;12217;50.792;4.372;2023-06-24T09:16:54;4.20;;;3.00;;
24008;SDS011;12217;50.792;4.372;2023-06-24T09:19:25;4.85;;;2.58;;
24008;SDS011;12217;50.792;4.372;2023-06-24T09:22:16;3.65;;;2.50;;
24008;SDS011;12217;50.792;4.372;2023-06-24T09:24:44;3.35;;;2.53;;
24008;SDS011;12217;50.792;4.372;2023-06-24T09:27:14;3.55;;;2.75;;
24008;SDS011;12217;50.792;4.372;2023-06-24T09:29:44;3.58;;;2.83;;
24008;SDS011;12217;50.792;4.372;2023-06-24T09:32:12;3.63;;;3.00;;
24008;SDS011;12217;50.792;4.372;2023-06-24T09:34:38;3.72;;;2.80;;
24008;SDS011;12217;50.792;4.372;2023-06-24T09:37:04;2.95;;;2.20;;
24008;SDS011;12217;50.792;4.372;2023-06-24T09:39:34;2.65;;;2.45;;
24008;SDS011;12217;50.792;4.372;2023-06-24T09:42:04;4.97;;;2.85;;
24008;SDS011;12217;50.792;4.372;2023-06-24T09:44:33;4.45;;;2.22;;
24008;SDS011;12217;50.792;4.372;2023-06-24T09:46:59;3.88;;;2.50;;
24008;SDS011;12217;50.792;4.372;2023-06-24T09:49:25;2.55;;;2.05;;
24008;SDS011;12217;50.792;4.372;2023-06-24T09:51:54;2.28;;;2.13;;
24008;SDS011;12217;50.792;4.372;2023-06-24T09:54:23;2.63;;;2.42;;
24008;SDS011;12217;50.792;4.372;2023-06-24T09:56:51;2.33;;;2.00;;
24008;SDS011;12217;50.792;4.372;2023-06-24T09:59:18;2.17;;;1.92;;
24008;SDS011;12217;50.792;4.372;2023-06-24T10:01:45;2.28;;;2.00;;
24008;SDS011;12217;50.792;4.372;2023-06-24T10:04:13;2.40;;;2.20;;
24008;SDS011;12217;50.792;4.372;2023-06-24T10:06:41;2.95;;;2.42;;
24008;SDS011;12217;50.792;4.372;2023-06-24T10:09:07;3.08;;;2.15;;
24008;SDS011;12217;50.792;4.372;2023-06-24T10:11:33;3.80;;;2.13;;
24008;SDS011;12217;50.792;4.372;2023-06-24T10:13:59;2.58;;;2.20;;
24008;SDS011;12217;50.792;4.372;2023-06-24T10:16:25;3.55;;;2.22;;
24008;SDS011;12217;50.792;4.372;2023-06-24T10:18:51;3.38;;;1.83;;
24008;SDS011;12217;50.792;4.372;2023-06-24T10:21:17;2.35;;;1.90;;
24008;SDS011;12217;50.792;4.372;2023-06-24T10:26:35;2.55;;;2.25;;
24008;SDS011;12217;50.792;4.372;2023-06-24T10:34:48;3.88;;;2.15;;
24008;SDS011;12217;50.792;4.372;2023-06-24T10:37:00;4.47;;;2.10;;
24008;SDS011;12217;50.792;4.372;2023-06-24T10:39:39;2.63;;;1.90;;
24008;SDS011;12217;50.792;4.372;2023-06-24T10:43:06;2.05;;;1.95;;
24008;SDS011;12217;50.792;4.372;2023-06-24T10:45:01;2.30;;;2.10;;
24008;SDS011;12217;50.792;4.372;2023-06-24T10:47:47;3.40;;;2.33;;
24008;SDS011;12217;50.792;4.372;2023-06-24T10:50:15;4.78;;;2.20;;
24008;SDS011;12217;50.792;4.372;2023-06-24T10:52:44;3.00;;;2.40;;
24008;SDS011;12217;50.792;4.372;2023-06-24T10:55:14;2.58;;;2.25;;
24008;SDS011;12217;50.792;4.372;2023-06-24T10:57:41;2.33;;;2.13;;
24008;SDS011;12217;50.792;4.372;2023-06-24T11:00:07;2.63;;;2.42;;
24008;SDS011;12217;50.792;4.372;2023-06-24T11:02:33;4.47;;;2.45;;
24008;SDS011;12217;50.792;4.372;2023-06-24T11:04:59;3.00;;;2.67;;
24008;SDS011;12217;50.792;4.372;2023-06-24T11:07:29;4.38;;;2.47;;
24008;SDS011;12217;50.792;4.372;2023-06-24T11:10:01;2.55;;;2.35;;
24008;SDS011;12217;50.792;4.372;2023-06-24T11:12:36;2.65;;;2.42;;
24008;SDS011;12217;50.792;4.372;2023-06-24T11:15:03;2.70;;;2.50;;
24008;SDS011;12217;50.792;4.372;2023-06-24T11:17:37;2.80;;;2.40;;
24008;SDS011;12217;50.792;4.372;2023-06-24T11:20:07;3.38;;;2.20;;
24008;SDS011;12217;50.792;4.372;2023-06-24T11:22:33;3.95;;;2.40;;
24008;SDS011;12217;50.792;4.372;2023-06-24T11:24:59;2.70;;;2.50;;
24008;SDS011;12217;50.792;4.372;2023-06-24T11:27:28;2.60;;;2.40;;
24008;SDS011;12217;50.792;4.372;2023-06-24T11:29:55;3.83;;;2.42;;
24008;SDS011;12217;50.792;4.372;2023-06-24T11:35:07;3.63;;;2.42;;
24008;SDS011;12217;50.792;4.372;2023-06-24T11:37:34;4.45;;;2.47;;
24008;SDS011;12217;50.792;4.372;2023-06-24T11:40:00;4.30;;;2.47;;
24008;SDS011;12217;50.792;4.372;2023-06-24T11:42:30;2.97;;;2.50;;
24008;SDS011;12217;50.792;4.372;2023-06-24T11:45:04;2.50;;;2.30;;
24008;SDS011;12217;50.792;4.372;2023-06-24T11:47:32;2.47;;;2.17;;
24008;SDS011;12217;50.792;4.372;2023-06-24T11:49:59;3.15;;;2.17;;
24008;SDS011;12217;50.792;4.372;2023-06-24T11:52:43;5.28;;;2.40;;
24008;SDS011;12217;50.792;4.372;2023-06-24T11:55:17;3.25;;;2.17;;
24008;SDS011;12217;50.792;4.372;2023-06-24T11:57:50;4.00;;;2.33;;
24008;SDS011;12217;50.792;4.372;2023-06-24T12:00:24;3.85;;;2.25;;
24008;SDS011;12217;50.792;4.372;2023-06-24T12:02:58;3.05;;;2.28;;
24008;SDS011;12217;50.792;4.372;2023-06-24T12:08:11;2.40;;;2.20;;
24008;SDS011;12217;50.792;4.372;2023-06-24T12:10:40;2.92;;;2.53;;
24008;SDS011;12217;50.792;4.372;2023-06-24T12:13:08;2.45;;;2.25;;
24008;SDS011;12217;50.792;4.372;2023-06-24T12:15:33;3.38;;;2.20;;
24008;SDS011;12217;50.792;4.372;2023-06-24T12:17:59;3.10;;;1.92;;
24008;SDS011;12217;50.792;4.372;2023-06-24T12:20:28;2.47;;;2.10;;
24008;SDS011;12217;50.792;4.372;2023-06-24T12:22:55;3.50;;;2.50;;
24008;SDS011;12217;50.792;4.372;2023-06-24T12:25:20;2.20;;;2.00;;
24008;SDS011;12217;50.792;4.372;2023-06-24T12:27:46;2.40;;;2.20;;
24008;SDS011;12217;50.792;4.372;2023-06-24T12:30:12;2.45;;;2.25;;
24008;SDS011;12217;50.792;4.372;2023-06-24T12:32:38;2.38;;;1.92;;
24008;SDS011;12217;50.792;4.372;2023-06-24T12:35:05;2.30;;;2.00;;
24008;SDS011;12217;50.792;4.372;2023-06-24T12:37:33;2.30;;;1.80;;
24008;SDS011;12217;50.792;4.372;2023-06-24T12:40:05;3.47;;;2.05;;
24008;SDS011;12217;50.792;4.372;2023-06-24T12:42:31;2.38;;;2.17;;
24008;SDS011;12217;50.792;4.372;2023-06-24T12:44:56;2.97;;;2.22;;
24008;SDS011;12217;50.792;4.372;2023-06-24T12:47:23;2.65;;;2.30;;
24008;SDS011;12217;50.792;4.372;2023-06-24T12:49:49;2.53;;;2.33;;
24008;SDS011;12217;50.792;4.372;2023-06-24T12:52:15;4.25;;;2.60;;
24008;SDS011;12217;50.792;4.372;2023-06-24T12:54:41;3.60;;;2.10;;
24008;SDS011;12217;50.792;4.372;2023-06-24T12:57:07;2.72;;;2.40;;
24008;SDS011;12217;50.792;4.372;2023-06-24T12:59:32;3.60;;;2.20;;
24008;SDS011;12217;50.792;4.372;2023-06-24T13:01:58;2.50;;;2.25;;
24008;SDS011;12217;50.792;4.372;2023-06-24T13:04:24;2.67;;;2.38;;
24008;SDS011;12217;50.792;4.372;2023-06-24T13:06:53;2.90;;;2.47;;
24008;SDS011;12217;50.792;4.372;2023-06-24T13:09:19;3.88;;;2.40;;
24008;SDS011;12217;50.792;4.372;2023-06-24T13:11:45;3.33;;;2.25;;
24008;SDS011;12217;50.792;4.372;2023-06-24T13:14:11;2.50;;;2.30;;
24008;SDS011;12217;50.792;4.372;2023-06-24T13:16:37;3.00;;;2.70;;
24008;SDS011;12217;50.792;4.372;2023-06-24T13:19:03;2.40;;;2.20;;
24008;SDS011;12217;50.792;4.372;2023-06-24T13:21:30;2.92;;;2.30;;
24008;SDS011;12217;50.792;4.372;2023-06-24T13:23:56;2.92;;;2.60;;
24008;SDS011;12217;50.792;4.372;2023-06-24T13:26:22;5.03;;;2.47;;
24008;SDS011;12217;50.792;4.372;2023-06-24T13:28:49;2.40;;;2.20;;
24008;SDS011;12217;50.792;4.372;2023-06-24T13:31:15;2.55;;;2.35;;
24008;SDS011;12217;50.792;4.372;2023-06-24T13:33:41;3.42;;;2.80;;
24008;SDS011;12217;50.792;4.372;2023-06-24T13:36:07;3.78;;;2.63;;
24008;SDS011;12217;50.792;4.372;2023-06-24T13:38:36;2.90;;;2.40;;
24008;SDS011;12217;50.792;4.372;2023-06-24T13:41:02;3.38;;;2.40;;
24008;SDS011;12217;50.792;4.372;2023-06-24T13:43:28;3.47;;;2.57;;
24008;SDS011;12217;50.792;4.372;2023-06-24T13:45:54;2.65;;;2.30;;
24008;SDS011;12217;50.792;4.372;2023-06-24T13:48:19;3.92;;;2.75;;
24008;SDS011;12217;50.792;4.372;2023-06-24T13:50:45;3.47;;;2.50;;
24008;SDS011;12217;50.792;4.372;2023-06-24T13:53:11;3.92;;;2.72;;
24008;SDS011;12217;50.792;4.372;2023-06-24T13:55:39;3.53;;;2.85;;
24008;SDS011;12217;50.792;4.372;2023-06-24T13:58:05;3.03;;;2.50;;
24008;SDS011;12217;50.792;4.372;2023-06-24T14:00:32;2.60;;;2.40;;
24008;SDS011;12217;50.792;4.372;2023-06-24T14:02:57;2.80;;;2.60;;
24008;SDS011;12217;50.792;4.372;2023-06-24T14:05:23;2.60;;;2.40;;
24008;SDS011;12217;50.792;4.372;2023-06-24T14:07:48;2.85;;;2.58;;
24008;SDS011;12217;50.792;4.372;2023-06-24T14:10:14;3.85;;;3.20;;
24008;SDS011;12217;50.792;4.372;2023-06-24T14:12:40;3.13;;;2.83;;
24008;SDS011;12217;50.792;4.372;2023-06-24T14:15:07;3.25;;;2.67;;
24008;SDS011;12217;50.792;4.372;2023-06-24T14:17:34;4.20;;;2.60;;
24008;SDS011;12217;50.792;4.372;2023-06-24T14:19:59;4.65;;;2.65;;
24008;SDS011;12217;50.792;4.372;2023-06-24T14:22:25;3.45;;;2.90;;
24008;SDS011;12217;50.792;4.372;2023-06-24T14:24:51;4.35;;;2.67;;
24008;SDS011;12217;50.792;4.372;2023-06-24T14:27:16;4.40;;;2.65;;
24008;SDS011;12217;50.792;4.372;2023-06-24T14:29:42;3.33;;;2.78;;
24008;SDS011;12217;50.792;4.372;2023-06-24T14:32:08;4.88;;;3.17;;
24008;SDS011;12217;50.792;4.372;2023-06-24T14:34:34;4.80;;;2.80;;
24008;SDS011;12217;50.792;4.372;2023-06-24T14:37:00;3.55;;;3.22;;
24008;SDS011;12217;50.792;4.372;2023-06-24T14:39:26;3.97;;;2.42;;
24008;SDS011;12217;50.792;4.372;2023-06-24T14:41:51;2.55;;;2.35;;
24008;SDS011;12217;50.792;4.372;2023-06-24T14:44:17;4.70;;;2.90;;
24008;SDS011;12217;50.792;4.372;2023-06-24T14:46:42;2.70;;;2.45;;
24008;SDS011;12217;50.792;4.372;2023-06-24T14:49:08;2.83;;;2.53;;
24008;SDS011;12217;50.792;4.372;2023-06-24T14:51:34;5.00;;;2.83;;
24008;SDS011;12217;50.792;4.372;2023-06-24T14:53:59;3.65;;;2.40;;
24008;SDS011;12217;50.792;4.372;2023-06-24T14:56:25;3.10;;;2.80;;
24008;SDS011;12217;50.792;4.372;2023-06-24T14:58:51;3.78;;;2.47;;
24008;SDS011;12217;50.792;4.372;2023-06-24T15:01:16;3.25;;;2.75;;
24008;SDS011;12217;50.792;4.372;2023-06-24T15:03:42;3.75;;;2.92;;
24008;SDS011;12217;50.792;4.372;2023-06-24T15:06:07;3.42;;;3.10;;
24008;SDS011;12217;50.792;4.372;2023-06-24T15:08:33;2.70;;;2.38;;
24008;SDS011;12217;50.792;4.372;2023-06-24T15:10:59;2.70;;;2.50;;
24008;SDS011;12217;50.792;4.372;2023-06-24T15:13:24;4.60;;;2.63;;
24008;SDS011;12217;50.792;4.372;2023-06-24T15:15:50;3.08;;;2.78;;
24008;SDS011;12217;50.792;4.372;2023-06-24T15:18:17;4.82;;;2.90;;